sensor_id;sensor_type;location;lat;lon;timestamp;temperature;humidity
74420;DHT22;62855;50.718;-2.460;2023-02-26T00:02:06;34.70;73.00
74420;DHT22;62855;50.718;-2.460;2023-02-26T00:05:06;34.70;73.00
74420;DHT22;62855;50.718;-2.460;2023-02-26T00:08:06;34.70;73.00
74420;DHT22;62855;50.718;-2.460;2023-02-26T00:11:06;34.70;73.00
74420;DHT22;62855;50.718;-2.460;2023-02-26T00:14:08;34.70;74.00
74420;DHT22;62855;50.718;-2.460;2023-02-26T00:17:22;34.70;74.00
74420;DHT22;62855;50.718;-2.460;2023-02-26T00:20:08;34.70;74.00
74420;DHT22;62855;50.718;-2.460;2023-02-26T00:23:10;34.70;74.00
74420;DHT22;62855;50.718;-2.460;2023-02-26T00:26:06;34.70;74.00
74420;DHT22;62855;50.718;-2.460;2023-02-26T00:29:06;34.70;74.00
74420;DHT22;62855;50.718;-2.460;2023-02-26T00:32:07;34.70;74.00
74420;DHT22;62855;50.718;-2.460;2023-02-26T00:35:08;34.70;74.00
74420;DHT22;62855;50.718;-2.460;2023-02-26T00:38:08;34.70;74.00
74420;DHT22;62855;50.718;-2.460;2023-02-26T00:41:06;34.70;74.00
74420;DHT22;62855;50.718;-2.460;2023-02-26T00:44:06;34.70;75.00
74420;DHT22;62855;50.718;-2.460;2023-02-26T00:47:11;34.70;75.00
74420;DHT22;62855;50.718;-2.460;2023-02-26T00:50:15;34.70;75.00
74420;DHT22;62855;50.718;-2.460;2023-02-26T00:53:11;34.52;75.00
74420;DHT22;62855;50.718;-2.460;2023-02-26T00:56:06;34.52;75.00
74420;DHT22;62855;50.718;-2.460;2023-02-26T00:59:05;34.52;75.00
74420;DHT22;62855;50.718;-2.460;2023-02-26T01:02:05;34.52;75.00
74420;DHT22;62855;50.718;-2.460;2023-02-26T01:05:08;34.52;75.00
74420;DHT22;62855;50.718;-2.460;2023-02-26T01:08:12;34.52;75.00
74420;DHT22;62855;50.718;-2.460;2023-02-26T01:11:06;34.34;75.00
74420;DHT22;62855;50.718;-2.460;2023-02-26T01:14:07;34.34;75.00
74420;DHT22;62855;50.718;-2.460;2023-02-26T01:17:11;34.34;75.00
74420;DHT22;62855;50.718;-2.460;2023-02-26T01:20:10;34.34;75.00
74420;DHT22;62855;50.718;-2.460;2023-02-26T01:23:08;34.34;75.00
74420;DHT22;62855;50.718;-2.460;2023-02-26T01:26:10;34.34;75.00
74420;DHT22;62855;50.718;-2.460;2023-02-26T01:29:07;34.34;75.00
74420;DHT22;62855;50.718;-2.460;2023-02-26T01:32:09;34.34;75.00
74420;DHT22;62855;50.718;-2.460;2023-02-26T01:35:12;34.34;75.00
74420;DHT22;62855;50.718;-2.460;2023-02-26T01:38:15;34.16;76.00
74420;DHT22;62855;50.718;-2.460;2023-02-26T01:41:17;34.16;76.00
74420;DHT22;62855;50.718;-2.460;2023-02-26T01:44:14;34.16;76.00
74420;DHT22;62855;50.718;-2.460;2023-02-26T01:47:15;33.98;76.00
74420;DHT22;62855;50.718;-2.460;2023-02-26T01:50:11;33.98;76.00
74420;DHT22;62855;50.718;-2.460;2023-02-26T01:53:17;33.98;76.00
74420;DHT22;62855;50.718;-2.460;2023-02-26T01:56:12;33.98;76.00
74420;DHT22;62855;50.718;-2.460;2023-02-26T01:59:08;33.98;76.00
74420;DHT22;62855;50.718;-2.460;2023-02-26T02:02:08;33.98;76.00
74420;DHT22;62855;50.718;-2.460;2023-02-26T02:05:11;33.98;76.00
74420;DHT22;62855;50.718;-2.460;2023-02-26T02:08:06;33.80;76.00
74420;DHT22;62855;50.718;-2.460;2023-02-26T02:11:09;33.80;76.00
74420;DHT22;62855;50.718;-2.460;2023-02-26T02:14:11;33.80;76.00
74420;DHT22;62855;50.718;-2.460;2023-02-26T02:17:11;33.80;76.00
74420;DHT22;62855;50.718;-2.460;2023-02-26T02:20:27;33.62;76.00
74420;DHT22;62855;50.718;-2.460;2023-02-26T02:23:10;33.62;76.00
74420;DHT22;62855;50.718;-2.460;2023-02-26T02:26:18;33.62;77.00
74420;DHT22;62855;50.718;-2.460;2023-02-26T02:29:25;33.62;77.00
74420;DHT22;62855;50.718;-2.460;2023-02-26T02:32:07;33.62;77.00
74420;DHT22;62855;50.718;-2.460;2023-02-26T02:35:11;33.62;77.00
74420;DHT22;62855;50.718;-2.460;2023-02-26T02:38:09;33.62;77.00
74420;DHT22;62855;50.718;-2.460;2023-02-26T02:41:16;33.62;77.00
74420;DHT22;62855;50.718;-2.460;2023-02-26T02:44:09;33.44;77.00
74420;DHT22;62855;50.718;-2.460;2023-02-26T02:47:08;33.44;77.00
74420;DHT22;62855;50.718;-2.460;2023-02-26T02:50:11;33.44;77.00
74420;DHT22;62855;50.718;-2.460;2023-02-26T02:53:08;33.44;77.00
74420;DHT22;62855;50.718;-2.460;2023-02-26T02:56:15;33.44;77.00
74420;DHT22;62855;50.718;-2.460;2023-02-26T02:59:10;33.44;77.00
74420;DHT22;62855;50.718;-2.460;2023-02-26T03:02:10;33.44;78.00
74420;DHT22;62855;50.718;-2.460;2023-02-26T03:05:06;33.44;78.00
74420;DHT22;62855;50.718;-2.460;2023-02-26T03:08:09;33.44;78.00
74420;DHT22;62855;50.718;-2.460;2023-02-26T03:11:07;33.26;77.00
74420;DHT22;62855;50.718;-2.460;2023-02-26T03:14:07;33.26;77.00
74420;DHT22;62855;50.718;-2.460;2023-02-26T03:17:17;33.26;77.00
74420;DHT22;62855;50.718;-2.460;2023-02-26T03:20:16;33.08;77.00
74420;DHT22;62855;50.718;-2.460;2023-02-26T03:23:13;33.08;77.00
74420;DHT22;62855;50.718;-2.460;2023-02-26T03:26:10;33.08;78.00
74420;DHT22;62855;50.718;-2.460;2023-02-26T03:29:08;33.08;78.00
74420;DHT22;62855;50.718;-2.460;2023-02-26T03:32:09;33.08;78.00
74420;DHT22;62855;50.718;-2.460;2023-02-26T03:35:09;33.08;78.00
74420;DHT22;62855;50.718;-2.460;2023-02-26T03:38:10;32.90;78.00
74420;DHT22;62855;50.718;-2.460;2023-02-26T03:41:09;32.90;78.00
74420;DHT22;62855;50.718;-2.460;2023-02-26T03:44:08;32.90;78.00
74420;DHT22;62855;50.718;-2.460;2023-02-26T03:47:07;32.90;78.00
74420;DHT22;62855;50.718;-2.460;2023-02-26T03:50:08;32.90;78.00
74420;DHT22;62855;50.718;-2.460;2023-02-26T03:53:09;32.72;78.00
74420;DHT22;62855;50.718;-2.460;2023-02-26T03:56:15;32.72;78.00
74420;DHT22;62855;50.718;-2.460;2023-02-26T03:59:07;32.72;78.00
74420;DHT22;62855;50.718;-2.460;2023-02-26T04:02:10;32.90;78.00
74420;DHT22;62855;50.718;-2.460;2023-02-26T04:05:09;32.90;78.00
74420;DHT22;62855;50.718;-2.460;2023-02-26T04:08:05;32.90;79.00
74420;DHT22;62855;50.718;-2.460;2023-02-26T04:11:08;33.08;79.00
74420;DHT22;62855;50.718;-2.460;2023-02-26T04:14:06;33.08;79.00
74420;DHT22;62855;50.718;-2.460;2023-02-26T04:17:06;33.08;79.00
74420;DHT22;62855;50.718;-2.460;2023-02-26T04:20:06;33.08;79.00
74420;DHT22;62855;50.718;-2.460;2023-02-26T04:23:06;33.08;80.00
74420;DHT22;62855;50.718;-2.460;2023-02-26T04:26:06;33.08;80.00
74420;DHT22;62855;50.718;-2.460;2023-02-26T04:29:06;33.08;80.00
74420;DHT22;62855;50.718;-2.460;2023-02-26T04:32:06;33.26;80.00
74420;DHT22;62855;50.718;-2.460;2023-02-26T04:35:06;33.26;80.00
74420;DHT22;62855;50.718;-2.460;2023-02-26T04:38:06;33.26;80.00
74420;DHT22;62855;50.718;-2.460;2023-02-26T04:41:06;33.26;80.00
74420;DHT22;62855;50.718;-2.460;2023-02-26T04:44:06;33.26;80.00
74420;DHT22;62855;50.718;-2.460;2023-02-26T04:47:06;33.08;80.00
74420;DHT22;62855;50.718;-2.460;2023-02-26T04:50:07;33.08;80.00
74420;DHT22;62855;50.718;-2.460;2023-02-26T04:53:06;33.08;80.00
74420;DHT22;62855;50.718;-2.460;2023-02-26T04:56:05;33.08;80.00
74420;DHT22;62855;50.718;-2.460;2023-02-26T04:59:06;33.08;80.00
74420;DHT22;62855;50.718;-2.460;2023-02-26T05:02:05;33.08;80.00
74420;DHT22;62855;50.718;-2.460;2023-02-26T05:05:06;33.08;80.00
74420;DHT22;62855;50.718;-2.460;2023-02-26T05:08:06;33.08;80.00
74420;DHT22;62855;50.718;-2.460;2023-02-26T05:11:06;33.26;80.00
74420;DHT22;62855;50.718;-2.460;2023-02-26T05:14:06;33.26;80.00
74420;DHT22;62855;50.718;-2.460;2023-02-26T05:17:06;33.26;80.00
74420;DHT22;62855;50.718;-2.460;2023-02-26T05:20:07;33.08;80.00
74420;DHT22;62855;50.718;-2.460;2023-02-26T05:23:06;33.08;80.00
74420;DHT22;62855;50.718;-2.460;2023-02-26T05:26:06;33.08;80.00
74420;DHT22;62855;50.718;-2.460;2023-02-26T05:29:06;33.08;80.00
74420;DHT22;62855;50.718;-2.460;2023-02-26T05:32:06;33.26;80.00
74420;DHT22;62855;50.718;-2.460;2023-02-26T05:35:06;33.08;80.00
74420;DHT22;62855;50.718;-2.460;2023-02-26T05:38:07;33.08;80.00
74420;DHT22;62855;50.718;-2.460;2023-02-26T05:41:05;33.08;80.00
74420;DHT22;62855;50.718;-2.460;2023-02-26T05:44:06;33.08;80.00
74420;DHT22;62855;50.718;-2.460;2023-02-26T05:47:06;33.08;80.00
74420;DHT22;62855;50.718;-2.460;2023-02-26T05:50:07;33.08;80.00
74420;DHT22;62855;50.718;-2.460;2023-02-26T05:53:06;33.08;80.00
74420;DHT22;62855;50.718;-2.460;2023-02-26T05:56:06;33.26;80.00
74420;DHT22;62855;50.718;-2.460;2023-02-26T05:59:06;33.08;80.00
74420;DHT22;62855;50.718;-2.460;2023-02-26T06:02:06;33.26;80.00
74420;DHT22;62855;50.718;-2.460;2023-02-26T06:05:08;33.08;80.00
74420;DHT22;62855;50.718;-2.460;2023-02-26T06:08:05;33.08;80.00
74420;DHT22;62855;50.718;-2.460;2023-02-26T06:11:05;33.26;80.00
74420;DHT22;62855;50.718;-2.460;2023-02-26T06:14:06;33.26;80.00
74420;DHT22;62855;50.718;-2.460;2023-02-26T06:17:06;33.26;80.00
74420;DHT22;62855;50.718;-2.460;2023-02-26T06:20:06;33.26;80.00
74420;DHT22;62855;50.718;-2.460;2023-02-26T06:23:06;33.26;80.00
74420;DHT22;62855;50.718;-2.460;2023-02-26T06:26:06;33.26;80.00
74420;DHT22;62855;50.718;-2.460;2023-02-26T06:29:06;33.08;80.00
74420;DHT22;62855;50.718;-2.460;2023-02-26T06:32:06;33.26;80.00
74420;DHT22;62855;50.718;-2.460;2023-02-26T06:35:07;33.08;80.00
74420;DHT22;62855;50.718;-2.460;2023-02-26T06:38:06;33.08;80.00
74420;DHT22;62855;50.718;-2.460;2023-02-26T06:41:06;33.08;80.00
74420;DHT22;62855;50.718;-2.460;2023-02-26T06:44:06;33.08;80.00
74420;DHT22;62855;50.718;-2.460;2023-02-26T06:47:06;33.08;80.00
74420;DHT22;62855;50.718;-2.460;2023-02-26T06:50:07;33.08;80.00
74420;DHT22;62855;50.718;-2.460;2023-02-26T06:53:06;33.08;80.00
74420;DHT22;62855;50.718;-2.460;2023-02-26T06:56:06;33.08;80.00
74420;DHT22;62855;50.718;-2.460;2023-02-26T06:59:06;33.08;80.00
74420;DHT22;62855;50.718;-2.460;2023-02-26T07:02:06;33.08;80.00
74420;DHT22;62855;50.718;-2.460;2023-02-26T07:05:06;33.08;80.00
74420;DHT22;62855;50.718;-2.460;2023-02-26T07:08:05;33.26;80.00
74420;DHT22;62855;50.718;-2.460;2023-02-26T07:11:05;33.26;80.00
74420;DHT22;62855;50.718;-2.460;2023-02-26T07:14:05;33.26;80.00
74420;DHT22;62855;50.718;-2.460;2023-02-26T07:17:05;33.26;80.00
74420;DHT22;62855;50.718;-2.460;2023-02-26T07:20:08;33.26;80.00
74420;DHT22;62855;50.718;-2.460;2023-02-26T07:23:06;33.26;80.00
74420;DHT22;62855;50.718;-2.460;2023-02-26T07:26:06;33.26;80.00
74420;DHT22;62855;50.718;-2.460;2023-02-26T07:29:06;33.26;80.00
74420;DHT22;62855;50.718;-2.460;2023-02-26T07:32:06;33.26;80.00
74420;DHT22;62855;50.718;-2.460;2023-02-26T07:35:06;33.44;80.00
74420;DHT22;62855;50.718;-2.460;2023-02-26T07:38:06;33.44;80.00
74420;DHT22;62855;50.718;-2.460;2023-02-26T07:41:06;33.44;80.00
74420;DHT22;62855;50.718;-2.460;2023-02-26T07:44:06;33.62;80.00
74420;DHT22;62855;50.718;-2.460;2023-02-26T07:47:06;33.80;80.00
74420;DHT22;62855;50.718;-2.460;2023-02-26T07:50:06;33.98;80.00
74420;DHT22;62855;50.718;-2.460;2023-02-26T07:53:06;34.16;80.00
74420;DHT22;62855;50.718;-2.460;2023-02-26T07:56:06;34.34;80.00
74420;DHT22;62855;50.718;-2.460;2023-02-26T07:59:06;34.52;80.00
74420;DHT22;62855;50.718;-2.460;2023-02-26T08:02:06;34.70;80.00
74420;DHT22;62855;50.718;-2.460;2023-02-26T08:05:06;34.70;80.00
74420;DHT22;62855;50.718;-2.460;2023-02-26T08:08:05;34.88;80.00
74420;DHT22;62855;50.718;-2.460;2023-02-26T08:11:06;34.88;80.00
74420;DHT22;62855;50.718;-2.460;2023-02-26T08:14:06;35.06;80.00
74420;DHT22;62855;50.718;-2.460;2023-02-26T08:17:06;35.24;80.00
74420;DHT22;62855;50.718;-2.460;2023-02-26T08:20:07;35.42;80.00
74420;DHT22;62855;50.718;-2.460;2023-02-26T08:23:06;35.60;80.00
74420;DHT22;62855;50.718;-2.460;2023-02-26T08:26:09;35.78;80.00
74420;DHT22;62855;50.718;-2.460;2023-02-26T08:29:06;35.96;80.00
74420;DHT22;62855;50.718;-2.460;2023-02-26T08:32:06;35.96;79.00
74420;DHT22;62855;50.718;-2.460;2023-02-26T08:35:07;36.14;79.00
74420;DHT22;62855;50.718;-2.460;2023-02-26T08:38:06;36.32;78.00
74420;DHT22;62855;50.718;-2.460;2023-02-26T08:41:06;36.50;78.00
74420;DHT22;62855;50.718;-2.460;2023-02-26T08:44:06;36.68;78.00
74420;DHT22;62855;50.718;-2.460;2023-02-26T08:47:06;37.04;78.00
74420;DHT22;62855;50.718;-2.460;2023-02-26T08:50:07;37.04;77.00
74420;DHT22;62855;50.718;-2.460;2023-02-26T08:53:06;37.22;76.00
74420;DHT22;62855;50.718;-2.460;2023-02-26T08:56:06;37.40;76.00
74420;DHT22;62855;50.718;-2.460;2023-02-26T08:59:06;37.58;75.00
74420;DHT22;62855;50.718;-2.460;2023-02-26T09:02:05;37.94;75.00
74420;DHT22;62855;50.718;-2.460;2023-02-26T09:05:06;38.12;75.00
74420;DHT22;62855;50.718;-2.460;2023-02-26T09:08:06;38.30;74.00
74420;DHT22;62855;50.718;-2.460;2023-02-26T09:11:05;38.48;73.00
74420;DHT22;62855;50.718;-2.460;2023-02-26T09:14:05;38.66;72.00
74420;DHT22;62855;50.718;-2.460;2023-02-26T09:17:05;38.66;71.00
74420;DHT22;62855;50.718;-2.460;2023-02-26T09:20:06;38.84;71.00
74420;DHT22;62855;50.718;-2.460;2023-02-26T09:23:05;39.02;70.00
74420;DHT22;62855;50.718;-2.460;2023-02-26T09:26:06;39.38;68.00
74420;DHT22;62855;50.718;-2.460;2023-02-26T09:29:05;39.56;67.00
74420;DHT22;62855;50.718;-2.460;2023-02-26T09:32:05;39.74;65.00
74420;DHT22;62855;50.718;-2.460;2023-02-26T09:35:07;39.74;64.00
74420;DHT22;62855;50.718;-2.460;2023-02-26T09:38:06;39.92;64.00
74420;DHT22;62855;50.718;-2.460;2023-02-26T09:41:09;40.10;64.00
74420;DHT22;62855;50.718;-2.460;2023-02-26T09:44:14;40.10;64.00
74420;DHT22;62855;50.718;-2.460;2023-02-26T09:47:12;40.28;63.00
74420;DHT22;62855;50.718;-2.460;2023-02-26T09:50:14;40.46;63.00
74420;DHT22;62855;50.718;-2.460;2023-02-26T09:53:13;40.46;62.00
74420;DHT22;62855;50.718;-2.460;2023-02-26T09:56:09;40.64;62.00
74420;DHT22;62855;50.718;-2.460;2023-02-26T09:59:08;40.64;62.00
74420;DHT22;62855;50.718;-2.460;2023-02-26T10:02:15;41.00;62.00
74420;DHT22;62855;50.718;-2.460;2023-02-26T10:06:15;41.00;62.00
74420;DHT22;62855;50.718;-2.460;2023-02-26T10:09:18;41.00;61.00
74420;DHT22;62855;50.718;-2.460;2023-02-26T10:12:09;41.18;62.00
74420;DHT22;62855;50.718;-2.460;2023-02-26T10:15:10;41.36;62.00
74420;DHT22;62855;50.718;-2.460;2023-02-26T10:18:09;41.54;62.00
74420;DHT22;62855;50.718;-2.460;2023-02-26T10:21:09;41.54;61.00
74420;DHT22;62855;50.718;-2.460;2023-02-26T10:24:11;41.54;61.00
74420;DHT22;62855;50.718;-2.460;2023-02-26T10:27:12;41.72;61.00
74420;DHT22;62855;50.718;-2.460;2023-02-26T10:30:12;41.72;61.00
74420;DHT22;62855;50.718;-2.460;2023-02-26T10:33:13;41.72;61.00
74420;DHT22;62855;50.718;-2.460;2023-02-26T10:36:15;41.54;61.00
74420;DHT22;62855;50.718;-2.460;2023-02-26T10:39:17;41.36;60.00
74420;DHT22;62855;50.718;-2.460;2023-02-26T10:42:12;41.36;61.00
74420;DHT22;62855;50.718;-2.460;2023-02-26T10:45:15;41.36;61.00
74420;DHT22;62855;50.718;-2.460;2023-02-26T10:48:16;41.54;61.00
74420;DHT22;62855;50.718;-2.460;2023-02-26T10:51:12;41.72;61.00
74420;DHT22;62855;50.718;-2.460;2023-02-26T10:54:14;42.08;61.00
74420;DHT22;62855;50.718;-2.460;2023-02-26T10:57:08;42.08;61.00
74420;DHT22;62855;50.718;-2.460;2023-02-26T11:00:09;42.26;60.00
74420;DHT22;62855;50.718;-2.460;2023-02-26T11:03:06;42.80;61.00
74420;DHT22;62855;50.718;-2.460;2023-02-26T11:06:06;43.34;60.00
74420;DHT22;62855;50.718;-2.460;2023-02-26T11:09:15;43.70;60.00
74420;DHT22;62855;50.718;-2.460;2023-02-26T11:12:11;43.88;60.00
74420;DHT22;62855;50.718;-2.460;2023-02-26T11:15:12;44.42;53.00
74420;DHT22;62855;50.718;-2.460;2023-02-26T11:18:11;44.60;52.00
74420;DHT22;62855;50.718;-2.460;2023-02-26T11:21:07;44.78;52.00
74420;DHT22;62855;50.718;-2.460;2023-02-26T11:24:10;44.96;52.00
74420;DHT22;62855;50.718;-2.460;2023-02-26T11:27:10;44.96;52.00
74420;DHT22;62855;50.718;-2.460;2023-02-26T11:30:14;44.78;51.00
74420;DHT22;62855;50.718;-2.460;2023-02-26T11:33:15;44.60;51.00
74420;DHT22;62855;50.718;-2.460;2023-02-26T11:36:09;44.06;55.00
74420;DHT22;62855;50.718;-2.460;2023-02-26T11:39:07;43.34;54.00
74420;DHT22;62855;50.718;-2.460;2023-02-26T11:42:07;42.80;55.00
74420;DHT22;62855;50.718;-2.460;2023-02-26T11:45:07;42.62;55.00
74420;DHT22;62855;50.718;-2.460;2023-02-26T11:48:10;42.44;57.00
74420;DHT22;62855;50.718;-2.460;2023-02-26T11:51:07;42.26;58.00
74420;DHT22;62855;50.718;-2.460;2023-02-26T11:54:19;42.26;58.00
74420;DHT22;62855;50.718;-2.460;2023-02-26T11:57:14;42.26;58.00
74420;DHT22;62855;50.718;-2.460;2023-02-26T12:00:17;42.26;59.00
74420;DHT22;62855;50.718;-2.460;2023-02-26T12:03:09;42.62;58.00
74420;DHT22;62855;50.718;-2.460;2023-02-26T12:06:09;42.98;56.00
74420;DHT22;62855;50.718;-2.460;2023-02-26T12:09:08;43.34;56.00
74420;DHT22;62855;50.718;-2.460;2023-02-26T12:12:19;43.52;55.00
74420;DHT22;62855;50.718;-2.460;2023-02-26T12:15:16;43.70;54.00
74420;DHT22;62855;50.718;-2.460;2023-02-26T12:18:20;43.70;53.00
74420;DHT22;62855;50.718;-2.460;2023-02-26T12:21:20;43.52;52.00
74420;DHT22;62855;50.718;-2.460;2023-02-26T12:24:18;43.88;53.00
74420;DHT22;62855;50.718;-2.460;2023-02-26T12:27:15;44.24;53.00
74420;DHT22;62855;50.718;-2.460;2023-02-26T12:30:22;44.24;52.00
74420;DHT22;62855;50.718;-2.460;2023-02-26T12:33:15;44.24;51.00
74420;DHT22;62855;50.718;-2.460;2023-02-26T12:36:18;43.88;50.00
74420;DHT22;62855;50.718;-2.460;2023-02-26T12:39:21;43.34;50.00
74420;DHT22;62855;50.718;-2.460;2023-02-26T12:42:16;43.16;50.00
74420;DHT22;62855;50.718;-2.460;2023-02-26T12:45:16;42.98;50.00
74420;DHT22;62855;50.718;-2.460;2023-02-26T12:48:24;42.98;50.00
74420;DHT22;62855;50.718;-2.460;2023-02-26T12:51:14;42.80;50.00
74420;DHT22;62855;50.718;-2.460;2023-02-26T12:54:21;42.62;50.00
74420;DHT22;62855;50.718;-2.460;2023-02-26T12:57:16;42.62;50.00
74420;DHT22;62855;50.718;-2.460;2023-02-26T13:00:19;42.62;50.00
74420;DHT22;62855;50.718;-2.460;2023-02-26T13:03:25;43.16;51.00
74420;DHT22;62855;50.718;-2.460;2023-02-26T13:06:22;43.70;50.00
74420;DHT22;62855;50.718;-2.460;2023-02-26T13:09:16;44.60;43.00
74420;DHT22;62855;50.718;-2.460;2023-02-26T13:12:17;44.78;42.00
74420;DHT22;62855;50.718;-2.460;2023-02-26T13:15:23;44.78;42.00
74420;DHT22;62855;50.718;-2.460;2023-02-26T13:18:10;45.14;42.00
74420;DHT22;62855;50.718;-2.460;2023-02-26T13:21:10;45.32;42.00
74420;DHT22;62855;50.718;-2.460;2023-02-26T13:24:12;45.50;42.00
74420;DHT22;62855;50.718;-2.460;2023-02-26T13:27:07;45.68;42.00
74420;DHT22;62855;50.718;-2.460;2023-02-26T13:30:19;45.68;41.00
74420;DHT22;62855;50.718;-2.460;2023-02-26T13:33:15;45.68;42.00
74420;DHT22;62855;50.718;-2.460;2023-02-26T13:36:07;46.22;42.00
74420;DHT22;62855;50.718;-2.460;2023-02-26T13:39:17;46.04;41.00
74420;DHT22;62855;50.718;-2.460;2023-02-26T13:42:15;46.22;40.00
74420;DHT22;62855;50.718;-2.460;2023-02-26T13:45:27;46.04;39.00
74420;DHT22;62855;50.718;-2.460;2023-02-26T13:48:14;46.22;39.00
74420;DHT22;62855;50.718;-2.460;2023-02-26T13:51:11;46.04;38.00
74420;DHT22;62855;50.718;-2.460;2023-02-26T13:54:08;45.68;39.00
74420;DHT22;62855;50.718;-2.460;2023-02-26T13:57:14;45.50;40.00
74420;DHT22;62855;50.718;-2.460;2023-02-26T14:00:21;45.50;40.00
74420;DHT22;62855;50.718;-2.460;2023-02-26T14:03:10;45.14;40.00
74420;DHT22;62855;50.718;-2.460;2023-02-26T14:09:29;44.60;40.00
74420;DHT22;62855;50.718;-2.460;2023-02-26T14:12:23;44.24;47.00
74420;DHT22;62855;50.718;-2.460;2023-02-26T14:15:28;44.06;47.00
74420;DHT22;62855;50.718;-2.460;2023-02-26T14:18:23;44.06;48.00
74420;DHT22;62855;50.718;-2.460;2023-02-26T14:21:27;44.24;48.00
74420;DHT22;62855;50.718;-2.460;2023-02-26T14:24:14;44.60;41.00
74420;DHT22;62855;50.718;-2.460;2023-02-26T14:30:17;44.42;40.00
74420;DHT22;62855;50.718;-2.460;2023-02-26T14:33:07;44.42;39.00
74420;DHT22;62855;50.718;-2.460;2023-02-26T14:36:14;44.60;40.00
74420;DHT22;62855;50.718;-2.460;2023-02-26T14:39:09;44.96;40.00
74420;DHT22;62855;50.718;-2.460;2023-02-26T14:42:09;45.32;40.00
74420;DHT22;62855;50.718;-2.460;2023-02-26T14:45:16;45.32;40.00
74420;DHT22;62855;50.718;-2.460;2023-02-26T14:48:11;45.50;40.00
74420;DHT22;62855;50.718;-2.460;2023-02-26T14:51:17;45.50;40.00
74420;DHT22;62855;50.718;-2.460;2023-02-26T14:55:42;45.68;40.00
74420;DHT22;62855;50.718;-2.460;2023-02-26T14:58:19;45.86;40.00
74420;DHT22;62855;50.718;-2.460;2023-02-26T15:01:17;45.68;40.00
74420;DHT22;62855;50.718;-2.460;2023-02-26T15:04:30;45.50;39.00
74420;DHT22;62855;50.718;-2.460;2023-02-26T15:07:18;45.32;40.00
74420;DHT22;62855;50.718;-2.460;2023-02-26T15:10:14;45.14;40.00
74420;DHT22;62855;50.718;-2.460;2023-02-26T15:13:19;44.96;39.00
74420;DHT22;62855;50.718;-2.460;2023-02-26T15:16:13;44.60;38.00
74420;DHT22;62855;50.718;-2.460;2023-02-26T15:19:19;44.42;38.00
74420;DHT22;62855;50.718;-2.460;2023-02-26T15:22:17;44.24;43.00
74420;DHT22;62855;50.718;-2.460;2023-02-26T15:25:15;44.24;43.00
74420;DHT22;62855;50.718;-2.460;2023-02-26T15:28:09;44.06;42.00
74420;DHT22;62855;50.718;-2.460;2023-02-26T15:31:08;44.06;43.00
74420;DHT22;62855;50.718;-2.460;2023-02-26T15:34:08;44.06;43.00
74420;DHT22;62855;50.718;-2.460;2023-02-26T15:37:05;44.24;43.00
74420;DHT22;62855;50.718;-2.460;2023-02-26T15:40:07;44.24;43.00
74420;DHT22;62855;50.718;-2.460;2023-02-26T15:43:07;44.42;37.00
74420;DHT22;62855;50.718;-2.460;2023-02-26T15:46:08;44.60;37.00
74420;DHT22;62855;50.718;-2.460;2023-02-26T15:49:11;44.60;37.00
74420;DHT22;62855;50.718;-2.460;2023-02-26T15:52:07;44.78;38.00
74420;DHT22;62855;50.718;-2.460;2023-02-26T15:55:12;44.78;36.00
74420;DHT22;62855;50.718;-2.460;2023-02-26T15:58:06;44.78;36.00
74420;DHT22;62855;50.718;-2.460;2023-02-26T16:01:05;44.78;36.00
74420;DHT22;62855;50.718;-2.460;2023-02-26T16:04:10;44.78;37.00
74420;DHT22;62855;50.718;-2.460;2023-02-26T16:07:09;44.96;36.00
74420;DHT22;62855;50.718;-2.460;2023-02-26T16:10:15;44.78;36.00
74420;DHT22;62855;50.718;-2.460;2023-02-26T16:17:09;44.96;36.00
74420;DHT22;62855;50.718;-2.460;2023-02-26T16:20:13;45.32;36.00
74420;DHT22;62855;50.718;-2.460;2023-02-26T16:23:11;45.50;36.00
74420;DHT22;62855;50.718;-2.460;2023-02-26T16:26:06;45.32;36.00
74420;DHT22;62855;50.718;-2.460;2023-02-26T16:29:11;44.96;36.00
74420;DHT22;62855;50.718;-2.460;2023-02-26T16:32:09;44.78;35.00
74420;DHT22;62855;50.718;-2.460;2023-02-26T16:35:10;44.42;36.00
74420;DHT22;62855;50.718;-2.460;2023-02-26T16:38:14;44.24;42.00
74420;DHT22;62855;50.718;-2.460;2023-02-26T16:41:08;43.88;43.00
74420;DHT22;62855;50.718;-2.460;2023-02-26T16:47:08;43.88;43.00
74420;DHT22;62855;50.718;-2.460;2023-02-26T16:50:12;43.88;44.00
74420;DHT22;62855;50.718;-2.460;2023-02-26T16:53:10;43.70;44.00
74420;DHT22;62855;50.718;-2.460;2023-02-26T16:56:06;43.70;44.00
74420;DHT22;62855;50.718;-2.460;2023-02-26T16:59:11;43.70;43.00
74420;DHT22;62855;50.718;-2.460;2023-02-26T17:02:11;43.52;43.00
74420;DHT22;62855;50.718;-2.460;2023-02-26T17:05:16;43.34;44.00
74420;DHT22;62855;50.718;-2.460;2023-02-26T17:08:12;43.34;44.00
74420;DHT22;62855;50.718;-2.460;2023-02-26T17:11:18;43.16;44.00
74420;DHT22;62855;50.718;-2.460;2023-02-26T17:14:13;42.98;43.00
74420;DHT22;62855;50.718;-2.460;2023-02-26T17:17:07;42.80;44.00
74420;DHT22;62855;50.718;-2.460;2023-02-26T17:20:06;42.80;44.00
74420;DHT22;62855;50.718;-2.460;2023-02-26T17:23:06;42.62;44.00
74420;DHT22;62855;50.718;-2.460;2023-02-26T17:26:06;42.44;44.00
74420;DHT22;62855;50.718;-2.460;2023-02-26T17:29:08;42.26;44.00
74420;DHT22;62855;50.718;-2.460;2023-02-26T17:32:15;42.08;44.00
74420;DHT22;62855;50.718;-2.460;2023-02-26T17:35:07;41.90;44.00
74420;DHT22;62855;50.718;-2.460;2023-02-26T17:38:07;41.72;45.00
74420;DHT22;62855;50.718;-2.460;2023-02-26T17:41:05;41.54;45.00
74420;DHT22;62855;50.718;-2.460;2023-02-26T17:44:06;41.36;45.00
74420;DHT22;62855;50.718;-2.460;2023-02-26T17:47:08;41.18;46.00
74420;DHT22;62855;50.718;-2.460;2023-02-26T17:50:19;41.00;46.00
74420;DHT22;62855;50.718;-2.460;2023-02-26T17:53:06;40.82;47.00
74420;DHT22;62855;50.718;-2.460;2023-02-26T17:56:10;40.64;47.00
74420;DHT22;62855;50.718;-2.460;2023-02-26T17:59:08;40.28;47.00
74420;DHT22;62855;50.718;-2.460;2023-02-26T18:02:14;40.10;48.00
74420;DHT22;62855;50.718;-2.460;2023-02-26T18:05:07;39.92;48.00
74420;DHT22;62855;50.718;-2.460;2023-02-26T18:08:20;39.74;48.00
74420;DHT22;62855;50.718;-2.460;2023-02-26T18:11:07;39.56;49.00
74420;DHT22;62855;50.718;-2.460;2023-02-26T18:14:06;39.38;49.00
74420;DHT22;62855;50.718;-2.460;2023-02-26T18:17:07;39.38;50.00
74420;DHT22;62855;50.718;-2.460;2023-02-26T18:20:10;39.20;50.00
74420;DHT22;62855;50.718;-2.460;2023-02-26T18:23:06;39.02;50.00
74420;DHT22;62855;50.718;-2.460;2023-02-26T18:26:06;39.02;50.00
74420;DHT22;62855;50.718;-2.460;2023-02-26T18:29:06;38.84;50.00
74420;DHT22;62855;50.718;-2.460;2023-02-26T18:32:08;38.66;50.00
74420;DHT22;62855;50.718;-2.460;2023-02-26T18:35:06;38.48;50.00
74420;DHT22;62855;50.718;-2.460;2023-02-26T18:38:07;38.48;50.00
74420;DHT22;62855;50.718;-2.460;2023-02-26T18:41:06;38.30;50.00
74420;DHT22;62855;50.718;-2.460;2023-02-26T18:44:06;38.30;50.00
74420;DHT22;62855;50.718;-2.460;2023-02-26T18:47:06;38.12;51.00
74420;DHT22;62855;50.718;-2.460;2023-02-26T18:50:07;37.94;51.00
74420;DHT22;62855;50.718;-2.460;2023-02-26T18:53:06;37.94;51.00